sensor_id;sensor_type;location;lat;lon;timestamp;temperature;humidity
52036;DHT22;38046;49.448;32.074;2023-02-28T00:00:13;2.40;82.30
52036;DHT22;38046;49.448;32.074;2023-02-28T00:02:43;2.40;82.50
52036;DHT22;38046;49.448;32.074;2023-02-28T00:05:10;2.40;82.20
52036;DHT22;38046;49.448;32.074;2023-02-28T00:07:37;2.40;82.10
52036;DHT22;38046;49.448;32.074;2023-02-28T00:10:04;2.30;81.70
52036;DHT22;38046;49.448;32.074;2023-02-28T00:12:32;2.40;81.80
52036;DHT22;38046;49.448;32.074;2023-02-28T00:14:57;2.30;81.70
52036;DHT22;38046;49.448;32.074;2023-02-28T00:17:23;2.40;81.50
52036;DHT22;38046;49.448;32.074;2023-02-28T00:19:49;2.30;81.20
52036;DHT22;38046;49.448;32.074;2023-02-28T00:22:19;2.30;81.20
52036;DHT22;38046;49.448;32.074;2023-02-28T00:24:46;2.30;81.10
52036;DHT22;38046;49.448;32.074;2023-02-28T00:27:12;2.30;80.90
52036;DHT22;38046;49.448;32.074;2023-02-28T00:29:38;2.30;80.80
52036;DHT22;38046;49.448;32.074;2023-02-28T00:32:04;2.30;80.80
52036;DHT22;38046;49.448;32.074;2023-02-28T00:34:30;2.30;80.40
52036;DHT22;38046;49.448;32.074;2023-02-28T00:36:56;2.20;80.30
52036;DHT22;38046;49.448;32.074;2023-02-28T00:39:22;2.20;80.30
52036;DHT22;38046;49.448;32.074;2023-02-28T00:41:48;2.20;80.30
52036;DHT22;38046;49.448;32.074;2023-02-28T00:44:13;2.20;80.40
52036;DHT22;38046;49.448;32.074;2023-02-28T00:46:39;2.20;80.60
52036;DHT22;38046;49.448;32.074;2023-02-28T00:49:05;2.20;80.50
52036;DHT22;38046;49.448;32.074;2023-02-28T00:51:30;2.20;80.40
52036;DHT22;38046;49.448;32.074;2023-02-28T00:53:56;2.20;80.30
52036;DHT22;38046;49.448;32.074;2023-02-28T00:56:21;2.20;80.30
52036;DHT22;38046;49.448;32.074;2023-02-28T00:58:47;2.10;80.20
52036;DHT22;38046;49.448;32.074;2023-02-28T01:01:13;2.10;80.10
52036;DHT22;38046;49.448;32.074;2023-02-28T01:03:38;2.10;80.80
52036;DHT22;38046;49.448;32.074;2023-02-28T01:06:04;2.00;79.90
52036;DHT22;38046;49.448;32.074;2023-02-28T01:08:30;2.00;80.20
52036;DHT22;38046;49.448;32.074;2023-02-28T01:10:56;2.00;80.20
52036;DHT22;38046;49.448;32.074;2023-02-28T01:13:21;2.00;80.20
52036;DHT22;38046;49.448;32.074;2023-02-28T01:15:53;2.00;80.50
52036;DHT22;38046;49.448;32.074;2023-02-28T01:18:20;2.00;80.20
52036;DHT22;38046;49.448;32.074;2023-02-28T01:20:47;2.00;80.10
52036;DHT22;38046;49.448;32.074;2023-02-28T01:23:12;2.10;79.90
52036;DHT22;38046;49.448;32.074;2023-02-28T01:25:38;2.10;79.90
52036;DHT22;38046;49.448;32.074;2023-02-28T01:28:04;2.10;79.80
52036;DHT22;38046;49.448;32.074;2023-02-28T01:30:31;2.10;79.60
52036;DHT22;38046;49.448;32.074;2023-02-28T01:32:57;2.10;79.40
52036;DHT22;38046;49.448;32.074;2023-02-28T01:35:23;2.10;79.30
52036;DHT22;38046;49.448;32.074;2023-02-28T01:37:49;2.10;79.10
52036;DHT22;38046;49.448;32.074;2023-02-28T01:40:14;2.10;79.20
52036;DHT22;38046;49.448;32.074;2023-02-28T01:42:40;2.10;79.20
52036;DHT22;38046;49.448;32.074;2023-02-28T01:45:25;2.10;79.10
52036;DHT22;38046;49.448;32.074;2023-02-28T01:47:54;2.20;78.60
52036;DHT22;38046;49.448;32.074;2023-02-28T01:50:25;2.20;79.00
52036;DHT22;38046;49.448;32.074;2023-02-28T01:52:54;2.20;79.10
52036;DHT22;38046;49.448;32.074;2023-02-28T01:55:21;2.20;79.00
52036;DHT22;38046;49.448;32.074;2023-02-28T01:57:52;2.20;79.00
52036;DHT22;38046;49.448;32.074;2023-02-28T02:00:22;2.20;79.00
52036;DHT22;38046;49.448;32.074;2023-02-28T02:02:51;2.20;78.90
52036;DHT22;38046;49.448;32.074;2023-02-28T02:05:22;2.30;78.90
52036;DHT22;38046;49.448;32.074;2023-02-28T02:07:55;2.20;78.90
52036;DHT22;38046;49.448;32.074;2023-02-28T02:10:21;2.20;78.90
52036;DHT22;38046;49.448;32.074;2023-02-28T02:16:04;2.20;78.70
52036;DHT22;38046;49.448;32.074;2023-02-28T02:18:52;2.20;78.90
52036;DHT22;38046;49.448;32.074;2023-02-28T02:21:30;2.20;78.70
52036;DHT22;38046;49.448;32.074;2023-02-28T02:29:31;2.10;78.50
52036;DHT22;38046;49.448;32.074;2023-02-28T02:40:19;2.00;78.20
52036;DHT22;38046;49.448;32.074;2023-02-28T02:42:55;1.90;77.60
52036;DHT22;38046;49.448;32.074;2023-02-28T02:45:37;2.00;78.30
52036;DHT22;38046;49.448;32.074;2023-02-28T02:48:08;2.00;78.40
52036;DHT22;38046;49.448;32.074;2023-02-28T02:50:42;1.90;78.30
52036;DHT22;38046;49.448;32.074;2023-02-28T02:53:10;1.90;78.40
52036;DHT22;38046;49.448;32.074;2023-02-28T02:55:41;1.90;78.40
52036;DHT22;38046;49.448;32.074;2023-02-28T02:58:11;1.90;78.40
52036;DHT22;38046;49.448;32.074;2023-02-28T03:00:45;1.90;78.40
52036;DHT22;38046;49.448;32.074;2023-02-28T03:03:13;1.90;78.40
52036;DHT22;38046;49.448;32.074;2023-02-28T03:05:46;1.90;78.30
52036;DHT22;38046;49.448;32.074;2023-02-28T03:08:13;1.90;78.20
52036;DHT22;38046;49.448;32.074;2023-02-28T03:10:48;1.80;78.20
52036;DHT22;38046;49.448;32.074;2023-02-28T03:21:25;1.80;77.90
52036;DHT22;38046;49.448;32.074;2023-02-28T03:24:49;1.80;78.10
52036;DHT22;38046;49.448;32.074;2023-02-28T03:27:34;1.80;77.80
52036;DHT22;38046;49.448;32.074;2023-02-28T03:30:06;1.80;78.00
52036;DHT22;38046;49.448;32.074;2023-02-28T03:32:40;1.80;77.90
52036;DHT22;38046;49.448;32.074;2023-02-28T03:35:16;1.90;78.00
52036;DHT22;38046;49.448;32.074;2023-02-28T03:37:49;1.90;78.00
52036;DHT22;38046;49.448;32.074;2023-02-28T03:40:20;1.90;77.90
52036;DHT22;38046;49.448;32.074;2023-02-28T03:42:50;1.90;77.70
52036;DHT22;38046;49.448;32.074;2023-02-28T03:45:26;1.90;77.70
52036;DHT22;38046;49.448;32.074;2023-02-28T03:55:48;1.90;77.40
52036;DHT22;38046;49.448;32.074;2023-02-28T04:01:26;1.90;77.10
52036;DHT22;38046;49.448;32.074;2023-02-28T04:03:53;1.90;77.00
52036;DHT22;38046;49.448;32.074;2023-02-28T04:06:21;1.90;77.00
52036;DHT22;38046;49.448;32.074;2023-02-28T04:08:48;1.90;77.20
52036;DHT22;38046;49.448;32.074;2023-02-28T04:13:42;1.90;76.80
52036;DHT22;38046;49.448;32.074;2023-02-28T04:16:08;1.90;76.70
52036;DHT22;38046;49.448;32.074;2023-02-28T04:18:38;1.90;76.70
52036;DHT22;38046;49.448;32.074;2023-02-28T04:21:04;1.90;76.40
52036;DHT22;38046;49.448;32.074;2023-02-28T04:23:30;1.90;76.40
52036;DHT22;38046;49.448;32.074;2023-02-28T04:25:56;1.80;76.30
52036;DHT22;38046;49.448;32.074;2023-02-28T04:28:21;1.90;76.40
52036;DHT22;38046;49.448;32.074;2023-02-28T04:30:47;1.90;76.30
52036;DHT22;38046;49.448;32.074;2023-02-28T04:33:13;1.90;76.30
52036;DHT22;38046;49.448;32.074;2023-02-28T04:35:39;1.90;76.80
52036;DHT22;38046;49.448;32.074;2023-02-28T04:38:04;1.90;76.30
52036;DHT22;38046;49.448;32.074;2023-02-28T04:40:30;1.90;76.10
52036;DHT22;38046;49.448;32.074;2023-02-28T04:42:55;1.90;75.90
52036;DHT22;38046;49.448;32.074;2023-02-28T04:45:21;1.90;75.90
52036;DHT22;38046;49.448;32.074;2023-02-28T04:47:47;1.90;76.00
52036;DHT22;38046;49.448;32.074;2023-02-28T04:50:12;1.90;75.90
52036;DHT22;38046;49.448;32.074;2023-02-28T04:52:38;1.90;75.90
52036;DHT22;38046;49.448;32.074;2023-02-28T04:55:04;1.90;75.80
52036;DHT22;38046;49.448;32.074;2023-02-28T04:57:30;1.90;75.70
52036;DHT22;38046;49.448;32.074;2023-02-28T04:59:56;1.90;75.80
52036;DHT22;38046;49.448;32.074;2023-02-28T05:02:22;1.90;75.70
52036;DHT22;38046;49.448;32.074;2023-02-28T05:04:49;1.90;75.60
52036;DHT22;38046;49.448;32.074;2023-02-28T05:07:14;1.90;75.60
52036;DHT22;38046;49.448;32.074;2023-02-28T05:09:40;1.90;75.30
52036;DHT22;38046;49.448;32.074;2023-02-28T05:12:06;1.90;75.20
52036;DHT22;38046;49.448;32.074;2023-02-28T05:14:31;1.90;75.20
52036;DHT22;38046;49.448;32.074;2023-02-28T05:16:57;1.90;75.30
52036;DHT22;38046;49.448;32.074;2023-02-28T05:19:22;1.90;75.10
52036;DHT22;38046;49.448;32.074;2023-02-28T05:21:51;1.90;75.20
52036;DHT22;38046;49.448;32.074;2023-02-28T05:24:17;1.90;75.10
52036;DHT22;38046;49.448;32.074;2023-02-28T05:26:50;1.90;75.20
52036;DHT22;38046;49.448;32.074;2023-02-28T05:29:17;1.80;74.90
52036;DHT22;38046;49.448;32.074;2023-02-28T05:31:43;1.90;74.90
52036;DHT22;38046;49.448;32.074;2023-02-28T05:34:08;1.80;74.80
52036;DHT22;38046;49.448;32.074;2023-02-28T05:36:37;1.80;74.80
52036;DHT22;38046;49.448;32.074;2023-02-28T05:39:04;1.90;75.00
52036;DHT22;38046;49.448;32.074;2023-02-28T05:41:30;1.90;74.90
52036;DHT22;38046;49.448;32.074;2023-02-28T05:43:57;1.90;74.90
52036;DHT22;38046;49.448;32.074;2023-02-28T05:46:23;1.90;74.80
52036;DHT22;38046;49.448;32.074;2023-02-28T05:48:48;1.90;74.70
52036;DHT22;38046;49.448;32.074;2023-02-28T05:51:14;2.00;75.00
52036;DHT22;38046;49.448;32.074;2023-02-28T05:53:40;2.00;74.70
52036;DHT22;38046;49.448;32.074;2023-02-28T05:56:06;2.00;74.60
52036;DHT22;38046;49.448;32.074;2023-02-28T05:58:31;2.00;74.50
52036;DHT22;38046;49.448;32.074;2023-02-28T06:01:18;2.00;74.50
52036;DHT22;38046;49.448;32.074;2023-02-28T06:03:44;2.00;74.60
52036;DHT22;38046;49.448;32.074;2023-02-28T06:06:10;2.00;74.80
52036;DHT22;38046;49.448;32.074;2023-02-28T06:08:35;2.10;74.80
52036;DHT22;38046;49.448;32.074;2023-02-28T06:11:04;2.10;74.80
52036;DHT22;38046;49.448;32.074;2023-02-28T06:13:30;2.10;74.70
52036;DHT22;38046;49.448;32.074;2023-02-28T06:15:55;2.10;74.60
52036;DHT22;38046;49.448;32.074;2023-02-28T06:18:21;2.20;74.50
52036;DHT22;38046;49.448;32.074;2023-02-28T06:20:54;2.20;74.40
52036;DHT22;38046;49.448;32.074;2023-02-28T06:23:21;2.20;74.70
52036;DHT22;38046;49.448;32.074;2023-02-28T06:25:47;2.20;74.80
52036;DHT22;38046;49.448;32.074;2023-02-28T06:28:13;2.30;74.60
52036;DHT22;38046;49.448;32.074;2023-02-28T06:30:39;2.30;74.60
52036;DHT22;38046;49.448;32.074;2023-02-28T06:33:04;2.30;74.40
52036;DHT22;38046;49.448;32.074;2023-02-28T06:35:30;2.30;74.40
52036;DHT22;38046;49.448;32.074;2023-02-28T06:37:56;2.30;74.30
52036;DHT22;38046;49.448;32.074;2023-02-28T06:40:22;2.40;73.90
52036;DHT22;38046;49.448;32.074;2023-02-28T06:42:48;2.40;74.10
52036;DHT22;38046;49.448;32.074;2023-02-28T06:45:14;2.40;74.10
52036;DHT22;38046;49.448;32.074;2023-02-28T06:47:41;2.40;74.00
52036;DHT22;38046;49.448;32.074;2023-02-28T06:50:09;2.40;73.70
52036;DHT22;38046;49.448;32.074;2023-02-28T06:52:35;2.40;73.80
52036;DHT22;38046;49.448;32.074;2023-02-28T06:55:05;2.40;74.10
52036;DHT22;38046;49.448;32.074;2023-02-28T06:57:33;2.40;73.90
52036;DHT22;38046;49.448;32.074;2023-02-28T07:00:00;2.50;73.90
52036;DHT22;38046;49.448;32.074;2023-02-28T07:02:27;2.50;73.70
52036;DHT22;38046;49.448;32.074;2023-02-28T07:04:52;2.50;73.50
52036;DHT22;38046;49.448;32.074;2023-02-28T07:07:18;2.50;73.40
52036;DHT22;38046;49.448;32.074;2023-02-28T07:09:44;2.60;73.70
52036;DHT22;38046;49.448;32.074;2023-02-28T07:12:09;2.50;73.60
52036;DHT22;38046;49.448;32.074;2023-02-28T07:14:36;2.60;73.50
52036;DHT22;38046;49.448;32.074;2023-02-28T07:17:02;2.60;73.30
52036;DHT22;38046;49.448;32.074;2023-02-28T07:19:28;2.60;73.30
52036;DHT22;38046;49.448;32.074;2023-02-28T07:21:54;2.60;73.40
52036;DHT22;38046;49.448;32.074;2023-02-28T07:24:20;2.60;73.50
52036;DHT22;38046;49.448;32.074;2023-02-28T07:26:46;2.70;73.70
52036;DHT22;38046;49.448;32.074;2023-02-28T07:29:11;2.70;73.40
52036;DHT22;38046;49.448;32.074;2023-02-28T07:31:37;2.80;73.30
52036;DHT22;38046;49.448;32.074;2023-02-28T07:34:03;2.80;73.30
52036;DHT22;38046;49.448;32.074;2023-02-28T07:36:28;2.90;73.00
52036;DHT22;38046;49.448;32.074;2023-02-28T07:38:54;3.00;73.00
52036;DHT22;38046;49.448;32.074;2023-02-28T07:41:21;3.10;72.80
52036;DHT22;38046;49.448;32.074;2023-02-28T07:43:48;3.20;72.60
52036;DHT22;38046;49.448;32.074;2023-02-28T07:46:15;3.30;72.40
52036;DHT22;38046;49.448;32.074;2023-02-28T07:48:42;3.30;72.30
52036;DHT22;38046;49.448;32.074;2023-02-28T07:51:08;3.40;72.20
52036;DHT22;38046;49.448;32.074;2023-02-28T07:53:34;3.50;72.10
52036;DHT22;38046;49.448;32.074;2023-02-28T07:56:01;3.60;71.80
52036;DHT22;38046;49.448;32.074;2023-02-28T07:58:29;3.70;71.60
52036;DHT22;38046;49.448;32.074;2023-02-28T08:00:55;3.70;71.40
52036;DHT22;38046;49.448;32.074;2023-02-28T08:03:22;3.80;71.40
52036;DHT22;38046;49.448;32.074;2023-02-28T08:05:51;3.80;71.10
52036;DHT22;38046;49.448;32.074;2023-02-28T08:08:18;3.80;70.70
52036;DHT22;38046;49.448;32.074;2023-02-28T08:10:44;3.80;70.40
52036;DHT22;38046;49.448;32.074;2023-02-28T08:13:09;3.80;70.10
52036;DHT22;38046;49.448;32.074;2023-02-28T08:15:35;3.80;69.60
52036;DHT22;38046;49.448;32.074;2023-02-28T08:18:01;3.80;69.60
52036;DHT22;38046;49.448;32.074;2023-02-28T08:20:27;3.80;69.50
52036;DHT22;38046;49.448;32.074;2023-02-28T08:22:53;3.80;69.10
52036;DHT22;38046;49.448;32.074;2023-02-28T08:25:19;3.80;68.90
52036;DHT22;38046;49.448;32.074;2023-02-28T08:27:45;3.70;68.70
52036;DHT22;38046;49.448;32.074;2023-02-28T08:30:12;3.70;68.70
52036;DHT22;38046;49.448;32.074;2023-02-28T08:32:38;3.70;69.10
52036;DHT22;38046;49.448;32.074;2023-02-28T08:35:05;3.70;69.10
52036;DHT22;38046;49.448;32.074;2023-02-28T08:37:31;3.70;69.20
52036;DHT22;38046;49.448;32.074;2023-02-28T08:39:56;3.70;69.40
52036;DHT22;38046;49.448;32.074;2023-02-28T08:42:23;3.80;69.20
52036;DHT22;38046;49.448;32.074;2023-02-28T08:44:49;3.80;69.10
52036;DHT22;38046;49.448;32.074;2023-02-28T08:47:14;3.80;69.20
52036;DHT22;38046;49.448;32.074;2023-02-28T08:49:40;3.80;69.10
52036;DHT22;38046;49.448;32.074;2023-02-28T08:52:06;3.80;69.30
52036;DHT22;38046;49.448;32.074;2023-02-28T08:54:32;3.80;69.20
52036;DHT22;38046;49.448;32.074;2023-02-28T08:56:58;3.80;69.30
52036;DHT22;38046;49.448;32.074;2023-02-28T08:59:24;3.90;69.40
52036;DHT22;38046;49.448;32.074;2023-02-28T09:01:49;3.80;69.40
52036;DHT22;38046;49.448;32.074;2023-02-28T09:04:15;3.90;69.50
52036;DHT22;38046;49.448;32.074;2023-02-28T09:06:41;3.80;69.10
52036;DHT22;38046;49.448;32.074;2023-02-28T09:09:06;3.80;69.00
52036;DHT22;38046;49.448;32.074;2023-02-28T09:11:34;3.80;68.90
52036;DHT22;38046;49.448;32.074;2023-02-28T09:14:00;3.80;68.80
52036;DHT22;38046;49.448;32.074;2023-02-28T09:16:29;3.80;68.90
52036;DHT22;38046;49.448;32.074;2023-02-28T09:18:54;3.80;68.70
52036;DHT22;38046;49.448;32.074;2023-02-28T09:21:20;3.80;68.90
52036;DHT22;38046;49.448;32.074;2023-02-28T09:23:47;3.70;69.00
52036;DHT22;38046;49.448;32.074;2023-02-28T09:26:25;3.80;69.10
52036;DHT22;38046;49.448;32.074;2023-02-28T09:28:53;3.70;69.00
52036;DHT22;38046;49.448;32.074;2023-02-28T09:31:23;3.70;68.90
52036;DHT22;38046;49.448;32.074;2023-02-28T09:33:52;3.70;68.90
52036;DHT22;38046;49.448;32.074;2023-02-28T09:36:19;3.70;68.40
52036;DHT22;38046;49.448;32.074;2023-02-28T09:38:45;3.70;68.60
52036;DHT22;38046;49.448;32.074;2023-02-28T09:41:23;3.70;68.50
52036;DHT22;38046;49.448;32.074;2023-02-28T09:43:55;3.80;68.70
52036;DHT22;38046;49.448;32.074;2023-02-28T09:46:43;3.70;68.70
52036;DHT22;38046;49.448;32.074;2023-02-28T09:49:17;3.70;68.80
52036;DHT22;38046;49.448;32.074;2023-02-28T09:52:00;3.80;68.80
52036;DHT22;38046;49.448;32.074;2023-02-28T09:54:29;3.70;68.60
52036;DHT22;38046;49.448;32.074;2023-02-28T10:05:17;3.80;68.00
52036;DHT22;38046;49.448;32.074;2023-02-28T10:08:15;3.80;67.90
52036;DHT22;38046;49.448;32.074;2023-02-28T10:10:50;3.80;68.10
52036;DHT22;38046;49.448;32.074;2023-02-28T10:13:41;3.70;68.20
52036;DHT22;38046;49.448;32.074;2023-02-28T10:21:55;3.70;67.70
52036;DHT22;38046;49.448;32.074;2023-02-28T10:24:29;3.70;67.50
52036;DHT22;38046;49.448;32.074;2023-02-28T10:27:01;3.70;67.30
52036;DHT22;38046;49.448;32.074;2023-02-28T10:29:31;3.70;67.30
52036;DHT22;38046;49.448;32.074;2023-02-28T10:32:01;3.60;67.40
52036;DHT22;38046;49.448;32.074;2023-02-28T10:34:28;3.60;67.50
52036;DHT22;38046;49.448;32.074;2023-02-28T10:36:54;3.50;67.90
52036;DHT22;38046;49.448;32.074;2023-02-28T10:39:42;3.40;68.10
52036;DHT22;38046;49.448;32.074;2023-02-28T10:48:04;3.30;68.20
52036;DHT22;38046;49.448;32.074;2023-02-28T10:55:38;3.20;68.80
52036;DHT22;38046;49.448;32.074;2023-02-28T10:58:22;3.20;69.00
52036;DHT22;38046;49.448;32.074;2023-02-28T11:00:49;3.20;69.20
52036;DHT22;38046;49.448;32.074;2023-02-28T11:03:35;3.20;69.10
52036;DHT22;38046;49.448;32.074;2023-02-28T11:08:54;3.20;69.20
52036;DHT22;38046;49.448;32.074;2023-02-28T11:11:21;3.20;69.30
52036;DHT22;38046;49.448;32.074;2023-02-28T11:13:51;3.30;69.30
52036;DHT22;38046;49.448;32.074;2023-02-28T11:16:17;3.30;69.40
52036;DHT22;38046;49.448;32.074;2023-02-28T11:18:54;3.30;69.00
52036;DHT22;38046;49.448;32.074;2023-02-28T11:21:31;3.40;69.00
52036;DHT22;38046;49.448;32.074;2023-02-28T11:24:26;3.40;68.80
52036;DHT22;38046;49.448;32.074;2023-02-28T11:26:52;3.40;68.70
52036;DHT22;38046;49.448;32.074;2023-02-28T11:29:22;3.50;68.80
52036;DHT22;38046;49.448;32.074;2023-02-28T11:32:02;3.50;68.70
52036;DHT22;38046;49.448;32.074;2023-02-28T11:34:29;3.50;68.70
52036;DHT22;38046;49.448;32.074;2023-02-28T11:36:57;3.50;68.60
52036;DHT22;38046;49.448;32.074;2023-02-28T11:39:25;3.60;68.80
52036;DHT22;38046;49.448;32.074;2023-02-28T11:53:23;3.90;68.70
52036;DHT22;38046;49.448;32.074;2023-02-28T11:56:07;3.90;68.50
52036;DHT22;38046;49.448;32.074;2023-02-28T12:07:17;3.80;68.00
52036;DHT22;38046;49.448;32.074;2023-02-28T12:21:01;3.70;68.50
52036;DHT22;38046;49.448;32.074;2023-02-28T12:28:54;3.60;68.30
52036;DHT22;38046;49.448;32.074;2023-02-28T12:31:29;3.60;68.30
52036;DHT22;38046;49.448;32.074;2023-02-28T12:34:00;3.60;68.60
52036;DHT22;38046;49.448;32.074;2023-02-28T12:36:27;3.50;68.50
52036;DHT22;38046;49.448;32.074;2023-02-28T12:39:22;3.40;68.40
52036;DHT22;38046;49.448;32.074;2023-02-28T12:41:56;3.50;68.30
52036;DHT22;38046;49.448;32.074;2023-02-28T12:44:32;3.50;68.50
52036;DHT22;38046;49.448;32.074;2023-02-28T12:47:04;3.50;68.50
52036;DHT22;38046;49.448;32.074;2023-02-28T12:49:32;3.50;68.50
52036;DHT22;38046;49.448;32.074;2023-02-28T12:52:00;3.50;68.40
52036;DHT22;38046;49.448;32.074;2023-02-28T12:57:43;3.50;68.40
52036;DHT22;38046;49.448;32.074;2023-02-28T13:00:14;3.50;68.70
52036;DHT22;38046;49.448;32.074;2023-02-28T13:03:31;3.50;68.70
52036;DHT22;38046;49.448;32.074;2023-02-28T13:11:02;3.60;68.70
52036;DHT22;38046;49.448;32.074;2023-02-28T13:13:30;3.60;68.50
52036;DHT22;38046;49.448;32.074;2023-02-28T13:15:59;3.70;68.60
52036;DHT22;38046;49.448;32.074;2023-02-28T13:18:45;3.70;68.60
52036;DHT22;38046;49.448;32.074;2023-02-28T13:21:30;3.80;68.50
52036;DHT22;38046;49.448;32.074;2023-02-28T13:23:59;3.80;68.60
52036;DHT22;38046;49.448;32.074;2023-02-28T13:34:27;3.90;68.50
52036;DHT22;38046;49.448;32.074;2023-02-28T13:39:50;3.90;68.30
52036;DHT22;38046;49.448;32.074;2023-02-28T13:42:34;3.90;68.40
52036;DHT22;38046;49.448;32.074;2023-02-28T13:47:39;3.90;68.50
52036;DHT22;38046;49.448;32.074;2023-02-28T13:50:32;3.90;68.50
52036;DHT22;38046;49.448;32.074;2023-02-28T13:55:46;3.90;68.80
52036;DHT22;38046;49.448;32.074;2023-02-28T13:58:42;3.90;68.90
52036;DHT22;38046;49.448;32.074;2023-02-28T14:03:48;3.90;69.10
52036;DHT22;38046;49.448;32.074;2023-02-28T14:06:32;3.90;69.00
52036;DHT22;38046;49.448;32.074;2023-02-28T14:11:42;3.90;67.90
52036;DHT22;38046;49.448;32.074;2023-02-28T14:14:53;3.90;67.80
52036;DHT22;38046;49.448;32.074;2023-02-28T14:16:56;4.00;68.10
52036;DHT22;38046;49.448;32.074;2023-02-28T14:19:28;4.00;67.60
52036;DHT22;38046;49.448;32.074;2023-02-28T14:27:28;3.90;67.50
52036;DHT22;38046;49.448;32.074;2023-02-28T14:30:15;3.90;67.30
52036;DHT22;38046;49.448;32.074;2023-02-28T14:32:54;3.90;67.40
52036;DHT22;38046;49.448;32.074;2023-02-28T14:38:21;3.90;67.70
52036;DHT22;38046;49.448;32.074;2023-02-28T14:40:52;3.90;67.60
52036;DHT22;38046;49.448;32.074;2023-02-28T14:43:24;3.90;67.60
52036;DHT22;38046;49.448;32.074;2023-02-28T14:45:58;3.90;67.60
52036;DHT22;38046;49.448;32.074;2023-02-28T14:48:24;3.90;67.80
52036;DHT22;38046;49.448;32.074;2023-02-28T14:50:54;4.00;67.80
52036;DHT22;38046;49.448;32.074;2023-02-28T14:53:22;3.90;67.40
52036;DHT22;38046;49.448;32.074;2023-02-28T14:55:50;4.00;67.70
52036;DHT22;38046;49.448;32.074;2023-02-28T15:00:53;4.10;67.70
52036;DHT22;38046;49.448;32.074;2023-02-28T15:03:30;4.10;67.50
52036;DHT22;38046;49.448;32.074;2023-02-28T15:06:01;4.10;67.40
52036;DHT22;38046;49.448;32.074;2023-02-28T15:08:28;4.10;67.60
52036;DHT22;38046;49.448;32.074;2023-02-28T15:11:32;4.10;67.50
52036;DHT22;38046;49.448;32.074;2023-02-28T15:13:58;4.10;67.30
52036;DHT22;38046;49.448;32.074;2023-02-28T15:16:39;4.10;67.60
52036;DHT22;38046;49.448;32.074;2023-02-28T15:19:21;4.10;67.30
52036;DHT22;38046;49.448;32.074;2023-02-28T15:22:07;4.10;67.50
52036;DHT22;38046;49.448;32.074;2023-02-28T15:27:11;4.10;67.50
52036;DHT22;38046;49.448;32.074;2023-02-28T15:29:47;4.20;67.50
52036;DHT22;38046;49.448;32.074;2023-02-28T15:32:42;4.20;67.70
52036;DHT22;38046;49.448;32.074;2023-02-28T15:38:15;4.20;67.00
52036;DHT22;38046;49.448;32.074;2023-02-28T15:40:44;4.20;67.20
52036;DHT22;38046;49.448;32.074;2023-02-28T15:43:18;4.20;67.20
52036;DHT22;38046;49.448;32.074;2023-02-28T15:45:51;4.20;67.10
52036;DHT22;38046;49.448;32.074;2023-02-28T15:50:57;4.30;67.00
52036;DHT22;38046;49.448;32.074;2023-02-28T15:53:29;4.30;67.10
52036;DHT22;38046;49.448;32.074;2023-02-28T15:55:57;4.30;67.00
52036;DHT22;38046;49.448;32.074;2023-02-28T15:58:24;4.30;67.20
52036;DHT22;38046;49.448;32.074;2023-02-28T16:01:29;4.30;67.00
52036;DHT22;38046;49.448;32.074;2023-02-28T16:03:59;4.30;67.00
52036;DHT22;38046;49.448;32.074;2023-02-28T16:06:45;4.40;66.90
52036;DHT22;38046;49.448;32.074;2023-02-28T16:09:13;4.40;67.00
52036;DHT22;38046;49.448;32.074;2023-02-28T16:11:43;4.40;66.80
52036;DHT22;38046;49.448;32.074;2023-02-28T16:14:17;4.40;66.70
52036;DHT22;38046;49.448;32.074;2023-02-28T16:16:49;4.40;66.60
52036;DHT22;38046;49.448;32.074;2023-02-28T16:19:15;4.40;66.50
52036;DHT22;38046;49.448;32.074;2023-02-28T16:21:41;4.40;66.70
52036;DHT22;38046;49.448;32.074;2023-02-28T16:24:07;4.40;66.70
52036;DHT22;38046;49.448;32.074;2023-02-28T16:26:33;4.40;66.50
52036;DHT22;38046;49.448;32.074;2023-02-28T16:29:00;4.40;66.40
52036;DHT22;38046;49.448;32.074;2023-02-28T16:31:27;4.50;66.40
52036;DHT22;38046;49.448;32.074;2023-02-28T16:33:53;4.50;66.30
52036;DHT22;38046;49.448;32.074;2023-02-28T16:36:22;4.50;66.20
52036;DHT22;38046;49.448;32.074;2023-02-28T16:38:50;4.50;66.30
52036;DHT22;38046;49.448;32.074;2023-02-28T16:41:21;4.50;66.30
52036;DHT22;38046;49.448;32.074;2023-02-28T16:43:50;4.50;66.20
52036;DHT22;38046;49.448;32.074;2023-02-28T16:46:16;4.50;66.20
52036;DHT22;38046;49.448;32.074;2023-02-28T16:48:46;4.50;66.20
52036;DHT22;38046;49.448;32.074;2023-02-28T16:51:16;4.50;66.10
52036;DHT22;38046;49.448;32.074;2023-02-28T16:53:44;4.40;66.00
52036;DHT22;38046;49.448;32.074;2023-02-28T16:56:21;4.40;66.10
52036;DHT22;38046;49.448;32.074;2023-02-28T16:58:48;4.40;66.10
52036;DHT22;38046;49.448;32.074;2023-02-28T17:01:14;4.40;66.10
52036;DHT22;38046;49.448;32.074;2023-02-28T17:03:40;4.40;66.30
52036;DHT22;38046;49.448;32.074;2023-02-28T17:06:17;4.40;66.30
52036;DHT22;38046;49.448;32.074;2023-02-28T17:08:44;4.40;66.30
52036;DHT22;38046;49.448;32.074;2023-02-28T17:11:10;4.40;66.30
52036;DHT22;38046;49.448;32.074;2023-02-28T17:13:35;4.40;66.30
52036;DHT22;38046;49.448;32.074;2023-02-28T17:16:01;4.30;66.40
52036;DHT22;38046;49.448;32.074;2023-02-28T17:18:27;4.40;66.40
52036;DHT22;38046;49.448;32.074;2023-02-28T17:21:01;4.30;66.40
52036;DHT22;38046;49.448;32.074;2023-02-28T17:23:27;4.40;66.50
52036;DHT22;38046;49.448;32.074;2023-02-28T17:25:53;4.30;66.40
52036;DHT22;38046;49.448;32.074;2023-02-28T17:28:20;4.30;66.40
52036;DHT22;38046;49.448;32.074;2023-02-28T17:30:46;4.30;66.40
52036;DHT22;38046;49.448;32.074;2023-02-28T17:33:13;4.30;66.50
52036;DHT22;38046;49.448;32.074;2023-02-28T17:35:38;4.20;66.50
52036;DHT22;38046;49.448;32.074;2023-02-28T17:38:04;4.30;66.70
52036;DHT22;38046;49.448;32.074;2023-02-28T17:40:30;4.20;66.50
52036;DHT22;38046;49.448;32.074;2023-02-28T17:42:55;4.20;66.70
52036;DHT22;38046;49.448;32.074;2023-02-28T17:45:22;4.20;66.60
52036;DHT22;38046;49.448;32.074;2023-02-28T17:47:49;4.20;66.70
52036;DHT22;38046;49.448;32.074;2023-02-28T17:50:21;4.10;66.60
52036;DHT22;38046;49.448;32.074;2023-02-28T17:52:48;4.10;66.60
52036;DHT22;38046;49.448;32.074;2023-02-28T17:55:15;4.10;66.60
52036;DHT22;38046;49.448;32.074;2023-02-28T17:57:42;4.00;66.70
52036;DHT22;38046;49.448;32.074;2023-02-28T18:00:10;3.90;66.70
52036;DHT22;38046;49.448;32.074;2023-02-28T18:02:37;3.80;66.80
52036;DHT22;38046;49.448;32.074;2023-02-28T18:05:03;3.70;67.20
52036;DHT22;38046;49.448;32.074;2023-02-28T18:07:30;3.60;67.60
52036;DHT22;38046;49.448;32.074;2023-02-28T18:09:55;3.50;67.60
52036;DHT22;38046;49.448;32.074;2023-02-28T18:12:21;3.50;67.80
52036;DHT22;38046;49.448;32.074;2023-02-28T18:14:47;3.50;67.70
52036;DHT22;38046;49.448;32.074;2023-02-28T18:17:13;3.50;67.70